Time;durP1;ratioP1;P1;durP2;ratioP2;P2;SDS_P1;SDS_P2;PMS_P1;PMS_P2;Temp;Humidity;BMP_temperature;BMP_pressure;BME280_temperature;BME280_humidity;BME280_pressure;Samples;Min_cycle;Max_cycle;Signal;HPM_P1;HPM_P2
2023/06/15 00:03:23;;;;;;;1.67;1.58;;;;;;;17.52;49.61;101846.69;10353429;28;20129;-69
2023/06/15 00:08:24;;;;;;;3.85;3.35;;;;;;;17.52;49.33;101853.00;10368741;28;20060;-69
2023/06/15 00:13:24;;;;;;;2.83;2.45;;;;;;;17.47;51.60;101857.44;10354959;28;20507;-69
2023/06/15 00:18:25;;;;;;;3.67;2.53;;;;;;;17.38;53.87;101857.69;10378026;28;20034;-69
2023/06/15 00:23:26;;;;;;;5.68;2.88;;;;;;;17.36;54.56;101856.25;10378127;28;20030;-68
2023/06/15 00:28:27;;;;;;;5.10;2.50;;;;;;;17.33;55.19;101857.53;10375685;28;20049;-69
2023/06/15 00:33:27;;;;;;;2.83;2.63;;;;;;;17.27;55.28;101858.41;10342452;28;20073;-69
2023/06/15 00:38:27;;;;;;;5.50;3.70;;;;;;;17.24;54.93;101869.78;10375922;28;20085;-69
2023/06/15 00:43:28;;;;;;;3.45;2.90;;;;;;;17.18;55.33;101865.19;10376446;28;20054;-68
2023/06/15 00:48:31;;;;;;;3.00;2.35;;;;;;;17.08;57.15;101867.56;10374711;28;20033;-69
2023/06/15 00:53:32;;;;;;;4.47;2.90;;;;;;;17.05;57.21;101873.47;10373861;28;20120;-69
2023/06/15 00:58:32;;;;;;;4.70;2.55;;;;;;;16.98;56.78;101864.44;10357778;28;20034;-69
2023/06/15 01:03:35;;;;;;;2.65;2.35;;;;;;;16.91;55.29;101864.44;10374741;28;20104;-69
2023/06/15 01:08:36;;;;;;;4.68;2.97;;;;;;;16.82;56.08;101863.84;10375103;28;20037;-69
2023/06/15 01:13:36;;;;;;;8.75;2.72;;;;;;;16.79;56.30;101868.94;10357085;28;20034;-69
2023/06/15 01:18:41;;;;;;;3.60;2.90;;;;;;;16.79;58.60;101875.22;10372816;28;20030;-69
2023/06/15 01:23:49;;;;;;;3.40;3.10;;;;;;;16.80;62.85;101879.63;10372445;28;20096;-69
2023/06/15 01:28:50;;;;;;;5.10;3.15;;;;;;;16.78;62.68;101876.25;10358108;28;20036;-69
2023/06/15 01:33:50;;;;;;;10.57;3.88;;;;;;;16.74;62.55;101875.00;10357038;28;20046;-69
2023/06/15 01:38:54;;;;;;;2.85;2.65;;;;;;;16.68;61.68;101868.47;10356621;28;20042;-69
2023/06/15 01:43:54;;;;;;;7.65;2.83;;;;;;;16.67;63.91;101876.91;10372179;28;20133;-69
2023/06/15 01:48:55;;;;;;;4.32;3.92;;;;;;;16.64;61.89;101880.06;10357825;28;20125;-69
2023/06/15 01:53:56;;;;;;;6.35;4.72;;;;;;;16.55;61.13;101882.19;10373848;28;20112;-69
2023/06/15 01:58:56;;;;;;;4.55;3.92;;;;;;;16.49;60.75;101883.88;10371893;28;20057;-69
2023/06/15 02:03:56;;;;;;;3.45;3.15;;;;;;;16.40;61.01;101879.72;10372652;28;20167;-69
2023/06/15 02:08:57;;;;;;;10.85;3.35;;;;;;;16.44;63.14;101880.94;10354550;28;20033;-68
2023/06/15 02:13:59;;;;;;;7.85;4.18;;;;;;;16.31;60.83;101880.97;10372416;28;20041;-69
2023/06/15 02:19:03;;;;;;;3.65;3.30;;;;;;;16.22;59.84;101880.34;10355772;28;20034;-69
2023/06/15 02:24:03;;;;;;;5.05;3.85;;;;;;;16.20;60.18;101881.59;10370588;28;20117;-69
2023/06/15 02:29:04;;;;;;;4.60;4.05;;;;;;;16.22;60.93;101891.28;10371661;28;20103;-69
2023/06/15 02:34:05;;;;;;;10.00;4.55;;;;;;;16.24;64.08;101889.19;10372321;28;20192;-69
2023/06/15 02:39:06;;;;;;;4.18;3.42;;;;;;;16.24;65.49;101894.66;10338508;28;20422;-69
2023/06/15 02:44:07;;;;;;;7.20;4.43;;;;;;;16.27;67.89;101896.97;10369920;28;20038;-69
2023/06/15 02:49:08;;;;;;;9.75;4.53;;;;;;;16.26;71.59;101886.22;10370378;28;20038;-69
2023/06/15 02:54:08;;;;;;;4.70;4.07;;;;;;;16.28;73.81;101897.78;10369858;28;20074;-69
2023/06/15 02:59:09;;;;;;;7.05;5.22;;;;;;;16.28;75.46;101898.63;10354171;28;20041;-68
2023/06/15 03:04:09;;;;;;;4.82;3.92;;;;;;;16.27;75.60;101886.03;10370510;28;20034;-69
2023/06/15 03:09:11;;;;;;;9.60;4.55;;;;;;;16.23;74.75;101898.41;10369821;28;20041;-69
2023/06/15 03:14:12;;;;;;;8.18;3.83;;;;;;;16.15;74.51;101890.44;10370167;28;20394;-69
2023/06/15 03:19:15;;;;;;;6.57;4.50;;;;;;;16.18;74.35;101894.66;10369368;28;20038;-69
2023/06/15 03:24:16;;;;;;;4.22;3.58;;;;;;;16.15;76.09;101903.25;10370663;28;20044;-68
2023/06/15 03:29:16;;;;;;;6.18;4.40;;;;;;;16.12;75.44;101906.41;10369261;28;20038;-69
2023/06/15 03:34:17;;;;;;;5.57;4.90;;;;;;;16.08;74.42;101907.88;10369069;28;20065;-69
2023/06/15 03:39:22;;;;;;;4.97;4.35;;;;;;;16.03;72.48;101908.50;10369846;28;20086;-69
2023/06/15 03:44:23;;;;;;;5.07;4.47;;;;;;;15.97;71.47;101906.59;10368988;28;20216;-69
2023/06/15 03:49:23;;;;;;;5.47;3.80;;;;;;;15.94;71.91;101907.84;10374960;28;20046;-69
2023/06/15 03:54:23;;;;;;;9.73;4.80;;;;;;;15.98;72.66;101916.47;10378142;28;20092;-68
2023/06/15 03:59:24;;;;;;;15.52;4.38;;;;;;;15.96;74.51;101911.22;10378778;28;20123;-69
2023/06/15 04:04:24;;;;;;;11.27;5.43;;;;;;;16.01;75.35;101919.63;10376019;28;20371;-69
2023/06/15 04:09:25;;;;;;;19.98;4.82;;;;;;;16.01;74.14;101916.06;10375858;28;20356;-69
2023/06/15 04:14:25;;;;;;;7.13;5.10;;;;;;;16.05;73.99;101914.63;10376920;28;20038;-69
2023/06/15 04:19:25;;;;;;;4.90;4.45;;;;;;;16.12;77.82;101922.81;10392841;28;20378;-69
2023/06/15 04:24:26;;;;;;;7.05;5.82;;;;;;;16.18;77.72;101920.09;10376430;28;20196;-69
2023/06/15 04:29:30;;;;;;;14.30;6.57;;;;;;;16.25;79.96;101931.00;10376660;28;20103;-69
2023/06/15 04:34:30;;;;;;;8.20;6.18;;;;;;;16.36;78.67;101924.91;10358112;28;20094;-69
2023/06/15 04:39:31;;;;;;;8.30;5.43;;;;;;;17.14;80.31;101932.38;10374177;28;20042;-64
2023/06/15 04:44:31;;;;;;;6.03;5.13;;;;;;;18.20;79.13;101929.03;10358195;28;20191;-64
2023/06/15 04:49:31;;;;;;;5.80;5.40;;;;;;;18.91;77.15;101925.00;10375435;28;20073;-65
2023/06/15 04:54:32;;;;;;;6.22;5.53;;;;;;;19.39;77.56;101937.13;10374565;28;20048;-65
2023/06/15 04:59:32;;;;;;;7.78;5.75;;;;;;;19.70;76.96;101942.44;10373088;28;20398;-65
2023/06/15 05:04:33;;;;;;;7.00;5.65;;;;;;;20.09;76.97;101944.81;10374294;28;20069;-64
2023/06/15 05:09:33;;;;;;;10.70;5.95;;;;;;;20.52;74.09;101943.75;10375460;28;20114;-64
2023/06/15 05:14:34;;;;;;;11.88;5.60;;;;;;;20.90;73.76;101937.75;10374691;28;20030;-70
2023/06/15 05:19:34;;;;;;;5.47;4.50;;;;;;;21.31;71.14;101936.69;10356725;28;20054;-69
2023/06/15 05:24:35;;;;;;;10.77;5.45;;;;;;;21.71;70.47;101938.59;10350087;28;20060;-70
2023/06/15 05:29:36;;;;;;;8.60;5.80;;;;;;;22.15;67.66;101941.59;10414582;28;20113;-70
2023/06/15 05:34:36;;;;;;;14.07;5.28;;;;;;;22.52;66.44;101939.19;10412211;28;20123;-70
2023/06/15 05:39:37;;;;;;;7.13;5.95;;;;;;;23.01;64.58;101944.09;10413048;28;20350;-70
2023/06/15 05:44:37;;;;;;;5.70;5.20;;;;;;;23.43;63.23;101938.81;10413850;28;20029;-70
2023/06/15 05:49:37;;;;;;;10.35;5.57;;;;;;;23.73;60.61;101943.03;10413996;28;20117;-70
2023/06/15 05:54:38;;;;;;;6.30;4.45;;;;;;;23.92;59.94;101948.19;10414321;28;20053;-70
2023/06/15 05:59:38;;;;;;;10.65;6.00;;;;;;;24.20;58.74;101950.69;10414837;28;20052;-70
2023/06/15 06:04:39;;;;;;;6.40;4.80;;;;;;;24.86;56.97;101946.78;10413709;28;20099;-71
2023/06/15 06:09:39;;;;;;;6.60;5.43;;;;;;;25.15;55.67;101947.22;10411006;28;20469;-70
2023/06/15 06:14:40;;;;;;;3.90;3.67;;;;;;;25.57;53.84;101955.41;10411978;28;20036;-71
2023/06/15 06:19:40;;;;;;;5.13;4.63;;;;;;;25.87;52.36;101949.13;10411755;28;20429;-70
2023/06/15 06:24:40;;;;;;;5.20;4.68;;;;;;;25.96;51.73;101950.25;10411125;28;20052;-70
2023/06/15 06:29:41;;;;;;;8.00;3.97;;;;;;;26.71;50.57;101951.63;10411535;28;20500;-70
2023/06/15 06:34:41;;;;;;;6.28;5.57;;;;;;;26.99;49.51;101950.19;10410994;28;20046;-70
2023/06/15 06:39:42;;;;;;;4.68;3.97;;;;;;;27.57;48.33;101944.97;10412740;28;20104;-70
2023/06/15 06:44:43;;;;;;;5.53;5.03;;;;;;;27.81;47.54;101947.91;10410264;28;20063;-70
2023/06/15 06:49:43;;;;;;;8.85;4.68;;;;;;;28.36;46.03;101951.38;10410442;28;20071;-70
2023/06/15 06:54:44;;;;;;;5.32;4.93;;;;;;;28.50;46.09;101944.03;10393040;28;20041;-70
2023/06/15 06:59:44;;;;;;;28.95;4.82;;;;;;;29.02;44.52;101954.66;10409688;28;20037;-70
2023/06/15 07:04:44;;;;;;;8.18;3.90;;;;;;;29.49;44.85;101950.19;10409628;28;20057;-70
2023/06/15 07:09:45;;;;;;;5.85;5.10;;;;;;;29.31;42.17;101955.41;10410745;28;20044;-70
2023/06/15 07:14:45;;;;;;;7.47;4.32;;;;;;;29.91;43.35;101954.88;10410270;28;20033;-70
2023/06/15 07:19:46;;;;;;;9.65;4.05;;;;;;;30.12;40.84;101966.53;10409262;28;20080;-70
2023/06/15 07:24:46;;;;;;;5.20;4.72;;;;;;;30.06;38.17;101962.19;10417373;28;20039;-70
2023/06/15 07:29:47;;;;;;;3.60;3.40;;;;;;;30.40;39.86;101955.50;10417224;28;20037;-70
2023/06/15 07:34:48;;;;;;;10.68;5.80;;;;;;;30.67;39.63;101954.75;10417067;28;20052;-70
2023/06/15 07:39:48;;;;;;;5.55;4.00;;;;;;;31.24;38.63;101958.13;10417916;28;20041;-70
2023/06/15 07:44:49;;;;;;;9.48;4.15;;;;;;;31.18;34.54;101964.97;10417795;28;20033;-70
2023/06/15 07:49:49;;;;;;;6.07;4.88;;;;;;;30.90;36.02;101959.34;10419308;28;20037;-71
2023/06/15 07:54:50;;;;;;;12.48;4.97;;;;;;;31.55;36.85;101961.09;10418166;28;20125;-70
2023/06/15 07:59:50;;;;;;;11.60;4.88;;;;;;;31.59;36.02;101953.72;10416792;28;20048;-70
2023/06/15 08:04:50;;;;;;;9.40;3.33;;;;;;;31.95;34.85;101958.53;10417199;28;20037;-70
2023/06/15 08:09:51;;;;;;;7.07;4.22;;;;;;;31.97;34.19;101956.22;10416030;28;20136;-70
2023/06/15 08:14:51;;;;;;;5.50;4.57;;;;;;;32.16;33.80;101959.69;10399243;28;20040;-71
2023/06/15 08:19:52;;;;;;;5.78;4.13;;;;;;;32.14;34.51;101959.16;10415484;28;20068;-70
2023/06/15 08:24:53;;;;;;;4.43;3.70;;;;;;;32.68;34.12;101956.38;10416805;28;20480;-70
2023/06/15 08:29:54;;;;;;;3.78;3.50;;;;;;;32.67;32.95;101960.31;10398987;28;20037;-71
2023/06/15 08:34:55;;;;;;;3.83;3.53;;;;;;;33.34;31.17;101954.50;10414348;28;20045;-71
2023/06/15 08:39:56;;;;;;;4.07;3.78;;;;;;;33.04;28.24;101953.44;10398584;28;20073;-71
2023/06/15 08:44:57;;;;;;;6.80;4.35;;;;;;;33.12;29.83;101951.78;10418072;28;20071;-70
2023/06/15 08:49:59;;;;;;;7.65;4.20;;;;;;;32.76;30.48;101951.97;10397865;28;20462;-70
2023/06/15 08:55:01;;;;;;;5.03;4.10;;;;;;;32.49;29.39;101953.81;10415447;28;20116;-70
2023/06/15 09:00:08;;;;;;;5.50;3.97;;;;;;;32.69;29.27;101952.44;10414609;28;20137;-71
2023/06/15 09:05:09;;;;;;;5.50;4.03;;;;;;;32.78;28.85;101944.88;10415582;28;20033;-70
2023/06/15 09:10:09;;;;;;;4.07;3.70;;;;;;;32.71;28.10;101954.94;10414607;28;20537;-70
2023/06/15 09:15:12;;;;;;;7.93;5.17;;;;;;;33.02;29.85;101952.09;10415566;28;20041;-71
2023/06/15 09:20:12;;;;;;;8.55;4.45;;;;;;;33.19;30.17;101951.34;10415813;28;20259;-70
2023/06/15 09:25:17;;;;;;;4.13;3.65;;;;;;;34.09;30.03;101953.63;10397236;28;20473;-71
2023/06/15 09:30:17;;;;;;;3.35;3.00;;;;;;;30.65;29.89;101957.84;10380542;28;20481;-70
2023/06/15 09:35:18;;;;;;;10.50;3.83;;;;;;;29.43;32.32;101961.41;10412351;28;20162;-70
2023/06/15 09:40:18;;;;;;;3.53;3.15;;;;;;;30.62;31.10;101958.44;10414217;28;20064;-70
2023/06/15 09:45:19;;;;;;;10.68;3.80;;;;;;;30.67;30.39;101955.56;10411220;28;20418;-70
2023/06/15 09:50:19;;;;;;;6.28;4.47;;;;;;;29.28;32.08;101947.63;10413492;28;20064;-71
2023/06/15 09:55:20;;;;;;;4.45;4.15;;;;;;;29.73;31.80;101952.91;10413210;28;20456;-70
2023/06/15 10:00:22;;;;;;;3.88;3.53;;;;;;;32.69;30.74;101944.00;10412552;28;20049;-70
2023/06/15 10:05:27;;;;;;;5.95;3.30;;;;;;;33.60;27.87;101944.47;10395660;28;20030;-71
2023/06/15 10:10:27;;;;;;;3.50;3.20;;;;;;;31.09;30.17;101955.63;10396023;28;20037;-70
2023/06/15 10:15:28;;;;;;;4.03;3.63;;;;;;;29.05;32.75;101960.47;10395160;28;20437;-70
2023/06/15 10:20:29;;;;;;;4.28;3.88;;;;;;;27.73;34.41;101954.91;10411949;28;20082;-71
2023/06/15 10:25:30;;;;;;;5.25;3.70;;;;;;;27.24;34.77;101963.19;10410612;28;20379;-70
2023/06/15 10:30:49;;;;;;;4.13;3.83;;;;;;;29.24;33.60;101962.50;10409629;28;20112;-70
2023/06/15 10:36:03;;;;;;;3.63;3.42;;;;;;;29.09;32.33;101957.94;10411248;28;20493;-69
2023/06/15 10:41:03;;;;;;;5.28;3.35;;;;;;;28.88;32.81;101957.31;10410988;28;20034;-70
2023/06/15 10:46:06;;;;;;;5.00;4.45;;;;;;;29.70;31.74;101957.13;10411759;28;20524;-70
2023/06/15 10:51:11;;;;;;;3.45;3.17;;;;;;;32.14;30.03;101947.94;10411372;28;20423;-70
2023/06/15 10:56:19;;;;;;;7.38;3.65;;;;;;;34.19;28.15;101942.00;10393707;28;20037;-70
2023/06/15 11:01:24;;;;;;;4.55;4.13;;;;;;;32.02;29.92;101946.88;10410126;28;20034;-70
2023/06/15 11:06:38;;;;;;;8.70;4.15;;;;;;;30.31;31.76;101953.44;10410133;28;20396;-70
2023/06/15 11:11:41;;;;;;;8.57;4.68;;;;;;;29.44;33.93;101946.31;10410265;28;20461;-70
2023/06/15 11:16:42;;;;;;;3.85;3.65;;;;;;;29.24;34.86;101954.97;10393803;28;20381;-70
2023/06/15 11:21:50;;;;;;;7.43;4.65;;;;;;;31.08;33.95;101948.34;10409016;28;20040;-70
2023/06/15 11:26:52;;;;;;;4.85;3.95;;;;;;;32.10;32.37;101946.94;10377996;28;20449;-70
2023/06/15 11:31:53;;;;;;;6.25;4.85;;;;;;;33.02;31.86;101944.50;10409896;28;20068;-71
2023/06/15 11:36:57;;;;;;;9.77;4.80;;;;;;;33.58;29.90;101944.81;10410076;28;20072;-70
2023/06/15 11:41:58;;;;;;;7.93;4.10;;;;;;;33.41;30.17;101942.78;10411588;28;20033;-70
2023/06/15 11:47:00;;;;;;;3.88;3.60;;;;;;;33.36;31.05;101933.69;10408703;28;20034;-70
2023/06/15 11:52:00;;;;;;;10.25;4.70;;;;;;;34.65;27.89;101937.59;10410163;28;20048;-70
2023/06/15 11:57:01;;;;;;;4.47;3.92;;;;;;;34.22;29.41;101930.09;10408089;28;20045;-70
2023/06/15 12:02:03;;;;;;;5.03;4.53;;;;;;;35.35;29.52;101927.66;10410284;28;20037;-70
2023/06/15 12:07:04;;;;;;;5.68;3.72;;;;;;;35.00;29.43;101920.56;10408871;28;20045;-70
2023/06/15 12:12:07;;;;;;;3.92;3.63;;;;;;;35.33;29.09;101924.38;10417379;28;20334;-70
2023/06/15 12:17:08;;;;;;;7.38;3.80;;;;;;;32.50;30.18;101921.00;10416601;28;20042;-71
2023/06/15 12:22:08;;;;;;;4.13;3.83;;;;;;;33.52;30.53;101918.06;10415668;28;20060;-70
2023/06/15 12:27:15;;;;;;;3.50;3.30;;;;;;;34.15;29.07;101918.56;10417255;28;20628;-70
2023/06/15 12:32:22;;;;;;;3.33;3.13;;;;;;;34.28;29.38;101916.69;10415294;28;20392;-70
2023/06/15 12:37:23;;;;;;;9.43;3.35;;;;;;;34.82;29.71;101908.59;10415610;28;20047;-70
2023/06/15 12:42:23;;;;;;;2.97;2.78;;;;;;;34.74;28.67;101907.44;10415102;28;20397;-70
2023/06/15 12:47:24;;;;;;;3.88;3.55;;;;;;;34.84;28.99;101901.44;10416861;28;20099;-70
2023/06/15 12:52:25;;;;;;;3.13;2.87;;;;;;;34.53;27.90;101906.56;10416123;28;20089;-70
2023/06/15 12:57:25;;;;;;;4.40;3.72;;;;;;;34.39;29.00;101893.50;10416971;28;20278;-70
2023/06/15 13:02:26;;;;;;;6.53;3.45;;;;;;;34.29;28.76;101888.22;10414291;28;20120;-70
2023/06/15 13:07:28;;;;;;;5.05;3.40;;;;;;;34.62;28.78;101890.44;10414930;28;20045;-71
2023/06/15 13:12:28;;;;;;;3.97;3.58;;;;;;;34.47;28.91;101889.00;10416089;28;20045;-70
2023/06/15 13:17:29;;;;;;;4.53;2.92;;;;;;;34.33;28.20;101892.00;10417113;28;20464;-70
2023/06/15 13:22:29;;;;;;;3.13;2.90;;;;;;;34.06;27.53;101898.06;10414274;28;20155;-70
2023/06/15 13:27:32;;;;;;;3.20;3.00;;;;;;;33.78;27.23;101895.56;10415126;28;20041;-70
2023/06/15 13:32:33;;;;;;;6.70;2.55;;;;;;;33.29;27.27;101903.31;10413171;28;20430;-70
2023/06/15 13:37:34;;;;;;;4.57;3.70;;;;;;;33.10;28.56;101897.97;10413709;28;20468;-70
2023/06/15 13:42:41;;;;;;;5.05;3.35;;;;;;;32.77;27.75;101891.88;10414190;28;20550;-70
2023/06/15 13:47:41;;;;;;;5.47;3.58;;;;;;;32.57;28.56;101888.53;10414309;28;20446;-70
2023/06/15 13:52:46;;;;;;;3.10;2.78;;;;;;;32.64;29.04;101888.91;10412774;28;20075;-70
2023/06/15 13:57:47;;;;;;;2.70;2.58;;;;;;;32.24;29.10;101892.78;10413838;28;20084;-70
2023/06/15 14:02:47;;;;;;;3.28;3.08;;;;;;;32.03;28.81;101886.88;10412916;28;20045;-70
2023/06/15 14:07:48;;;;;;;5.35;2.80;;;;;;;32.00;29.43;101879.09;10412569;28;20114;-70
2023/06/15 14:12:48;;;;;;;5.75;2.95;;;;;;;32.11;28.37;101884.13;10413505;28;20037;-70
2023/06/15 14:17:48;;;;;;;4.40;3.08;;;;;;;31.63;28.70;101881.94;10412328;28;20041;-70
2023/06/15 14:22:49;;;;;;;3.30;2.13;;;;;;;31.35;29.07;101883.19;10413647;28;20041;-70
2023/06/15 14:27:49;;;;;;;3.20;2.88;;;;;;;31.09;29.46;101889.31;10411653;28;20041;-70
2023/06/15 14:32:50;;;;;;;3.28;3.08;;;;;;;30.78;29.16;101884.34;10411439;28;20148;-69
2023/06/15 14:37:51;;;;;;;12.05;3.38;;;;;;;30.63;29.82;101886.59;10411291;28;20161;-70
2023/06/15 14:42:51;;;;;;;14.63;3.88;;;;;;;30.34;30.51;101885.75;10412292;28;20061;-70
2023/06/15 14:47:52;;;;;;;3.30;3.00;;;;;;;29.99;30.29;101889.94;10411510;28;20075;-70
2023/06/15 14:52:53;;;;;;;2.70;2.50;;;;;;;30.00;30.42;101874.03;10409872;28;20052;-70
2023/06/15 14:57:53;;;;;;;3.60;3.35;;;;;;;30.02;30.49;101872.56;10411856;28;20421;-70
2023/06/15 15:02:53;;;;;;;3.15;2.92;;;;;;;29.82;30.66;101882.13;10409362;28;20061;-69
2023/06/15 15:07:54;;;;;;;6.07;2.92;;;;;;;29.98;30.64;101885.50;10410885;28;20508;-70
2023/06/15 15:12:54;;;;;;;2.90;2.70;;;;;;;29.60;30.55;101877.16;10411281;28;20484;-70
2023/06/15 15:17:55;;;;;;;3.33;3.03;;;;;;;29.49;30.88;101877.63;10411680;28;20180;-70
2023/06/15 15:22:55;;;;;;;6.40;3.08;;;;;;;29.30;30.90;101878.44;10409522;28;20091;-70
2023/06/15 15:27:56;;;;;;;3.15;2.95;;;;;;;29.06;31.22;101867.31;10408079;28;20044;-70
2023/06/15 15:32:56;;;;;;;3.13;2.85;;;;;;;28.96;31.13;101868.25;10410175;28;20062;-70
2023/06/15 15:37:57;;;;;;;4.18;3.78;;;;;;;28.56;31.29;101858.44;10408764;28;20060;-70
2023/06/15 15:42:57;;;;;;;2.65;2.45;;;;;;;28.58;31.74;101863.69;10409257;28;20165;-70
2023/06/15 15:47:57;;;;;;;3.37;3.03;;;;;;;28.52;31.66;101869.31;10419225;28;20048;-70
2023/06/15 15:52:58;;;;;;;2.63;2.42;;;;;;;28.43;31.82;101859.13;10417907;28;20634;-70
2023/06/15 15:57:59;;;;;;;6.63;2.33;;;;;;;28.12;31.84;101855.78;10416466;28;20129;-70
2023/06/15 16:02:59;;;;;;;2.90;2.67;;;;;;;27.97;32.15;101865.09;10416220;28;20366;-70
2023/06/15 16:08:02;;;;;;;5.78;3.33;;;;;;;27.45;32.42;101870.19;10416587;28;20060;-71
2023/06/15 16:13:03;;;;;;;3.35;2.63;;;;;;;27.10;32.27;101862.84;10416488;28;20144;-70
2023/06/15 16:18:04;;;;;;;3.55;2.78;;;;;;;26.58;32.60;101853.91;10416018;28;20560;-69
2023/06/15 16:23:04;;;;;;;4.65;2.65;;;;;;;26.58;32.80;101858.59;10417198;28;20030;-69
2023/06/15 16:28:05;;;;;;;5.68;2.75;;;;;;;25.73;33.88;101862.78;10416432;28;20061;-69
2023/06/15 16:33:05;;;;;;;4.75;2.50;;;;;;;25.29;34.34;101848.56;10415012;28;20053;-69
2023/06/15 16:38:06;;;;;;;5.28;2.50;;;;;;;25.07;34.30;101854.28;10416394;28;20480;-69
2023/06/15 16:43:08;;;;;;;4.78;3.03;;;;;;;24.64;35.48;101848.03;10415180;28;20446;-69
2023/06/15 16:48:09;;;;;;;3.20;2.85;;;;;;;24.51;34.98;101846.56;10414260;28;20025;-69
2023/06/15 16:53:10;;;;;;;3.22;3.03;;;;;;;24.35;36.15;101858.63;10416086;28;20037;-69
2023/06/15 16:58:10;;;;;;;3.28;2.63;;;;;;;24.28;35.68;101861.63;10415849;28;20041;-69
2023/06/15 17:03:11;;;;;;;3.97;3.55;;;;;;;24.06;35.75;101858.97;10414664;28;20034;-69
2023/06/15 17:08:12;;;;;;;4.03;2.80;;;;;;;23.92;35.81;101859.69;10398075;28;20120;-69
2023/06/15 17:13:12;;;;;;;2.85;2.65;;;;;;;23.61;36.63;101865.75;10415808;28;20112;-69
2023/06/15 17:18:12;;;;;;;3.33;3.08;;;;;;;23.63;36.16;101866.31;10414069;28;20041;-69
2023/06/15 17:23:13;;;;;;;3.03;2.78;;;;;;;23.64;35.61;101869.88;10414595;28;20525;-70
2023/06/15 17:28:13;;;;;;;3.47;2.38;;;;;;;23.54;36.87;101869.81;10415280;28;20165;-69
2023/06/15 17:33:14;;;;;;;5.40;2.78;;;;;;;23.47;36.83;101869.19;10414499;28;20184;-69
2023/06/15 17:38:14;;;;;;;10.55;3.28;;;;;;;23.33;37.21;101866.84;10414399;28;20180;-69
2023/06/15 17:43:15;;;;;;;7.40;2.95;;;;;;;23.35;36.23;101869.31;10411918;28;20499;-69
2023/06/15 17:48:17;;;;;;;2.97;2.70;;;;;;;23.13;37.80;101863.81;10413220;28;20105;-69
2023/06/15 17:53:17;;;;;;;3.13;2.15;;;;;;;22.95;37.99;101865.00;10412981;28;20057;-69
2023/06/15 17:58:18;;;;;;;2.85;2.63;;;;;;;22.91;37.41;101869.31;10411715;28;20029;-69
2023/06/15 18:03:18;;;;;;;4.65;2.80;;;;;;;22.89;36.98;101877.88;10411628;28;20492;-69
2023/06/15 18:08:19;;;;;;;3.47;3.17;;;;;;;22.71;38.65;101873.47;10412105;28;20099;-69
2023/06/15 18:13:19;;;;;;;2.47;2.28;;;;;;;22.53;38.39;101879.31;10413786;28;20068;-69
2023/06/15 18:18:20;;;;;;;4.47;3.40;;;;;;;22.47;37.86;101880.31;10396098;28;20033;-69
2023/06/15 18:23:20;;;;;;;6.38;3.17;;;;;;;22.42;37.96;101888.53;10412298;28;20029;-69
2023/06/15 18:28:21;;;;;;;19.80;2.67;;;;;;;22.34;37.50;101881.50;10413240;28;20377;-69
2023/06/15 18:33:23;;;;;;;3.38;3.08;;;;;;;22.19;39.20;101870.22;10410597;28;20140;-70
2023/06/15 18:38:23;;;;;;;2.97;2.78;;;;;;;22.06;39.31;101865.84;10412171;28;20434;-75
2023/06/15 18:43:24;;;;;;;3.90;3.42;;;;;;;21.94;38.42;101871.44;10412925;28;20064;-76
2023/06/15 18:48:24;;;;;;;4.78;3.05;;;;;;;21.82;39.49;101865.16;10411748;28;20033;-75
2023/06/15 18:53:25;;;;;;;9.27;3.20;;;;;;;21.65;40.19;101864.31;10410976;28;20109;-76
2023/06/15 18:58:25;;;;;;;5.32;2.95;;;;;;;21.49;41.61;101874.22;10410697;28;20128;-76
2023/06/15 19:03:26;;;;;;;5.22;3.25;;;;;;;21.39;41.77;101880.38;10412559;28;20191;-75
2023/06/15 19:08:26;;;;;;;4.10;3.70;;;;;;;21.24;42.17;101877.28;10412080;28;20049;-75
2023/06/15 19:13:30;;;;;;;2.80;2.60;;;;;;;21.09;42.51;101878.66;10411012;28;20041;-76
2023/06/15 19:18:30;;;;;;;4.15;3.65;;;;;;;20.99;41.42;101885.84;10412646;28;20033;-76
2023/06/15 19:23:31;;;;;;;6.72;3.20;;;;;;;20.85;43.08;101890.81;10411888;28;20127;-75
2023/06/15 19:28:32;;;;;;;4.57;2.90;;;;;;;20.76;41.81;101893.09;10410397;28;20456;-77
2023/06/15 19:33:32;;;;;;;7.38;3.55;;;;;;;20.62;42.57;101889.75;10412218;28;20119;-77
2023/06/15 19:38:33;;;;;;;5.40;3.45;;;;;;;20.46;44.03;101887.72;10413584;28;20056;-75
2023/06/15 19:43:35;;;;;;;4.72;2.63;;;;;;;20.32;43.69;101887.09;10410774;28;20109;-75
2023/06/15 19:48:36;;;;;;;4.05;3.65;;;;;;;20.19;43.77;101893.66;10410956;28;20100;-76
2023/06/15 19:53:36;;;;;;;9.40;3.90;;;;;;;20.06;45.76;101904.88;10396060;28;20175;-79
2023/06/15 19:58:36;;;;;;;4.35;3.63;;;;;;;19.92;44.66;101897.94;10422264;28;20041;-77
2023/06/15 20:03:37;;;;;;;3.15;2.88;;;;;;;19.80;44.30;101913.56;10404660;28;20033;-75
2023/06/15 20:08:38;;;;;;;7.78;2.92;;;;;;;19.65;44.86;101909.31;10396461;28;20120;-77
2023/06/15 20:13:39;;;;;;;6.20;3.20;;;;;;;19.54;44.59;101912.84;10411515;28;20139;-79
2023/06/15 20:18:44;;;;;;;4.43;3.83;;;;;;;19.45;47.21;101920.53;10396782;28;20412;-76
2023/06/15 20:23:44;;;;;;;8.38;3.92;;;;;;;19.28;47.60;101914.03;10410317;28;20401;-75
2023/06/15 20:28:45;;;;;;;9.55;3.72;;;;;;;19.17;46.16;101912.03;10410552;28;20030;-71
2023/06/15 20:33:45;;;;;;;6.53;3.10;;;;;;;19.01;46.20;101917.06;10398468;28;20362;-69
2023/06/15 20:38:46;;;;;;;7.00;3.08;;;;;;;18.91;48.58;101915.94;10399274;28;20040;-69
2023/06/15 20:43:46;;;;;;;10.60;4.07;;;;;;;18.81;47.49;101920.06;10414951;28;20048;-68
2023/06/15 20:48:47;;;;;;;5.78;4.03;;;;;;;18.69;48.08;101915.50;10398958;28;20122;-70
2023/06/15 20:53:47;;;;;;;18.60;4.10;;;;;;;18.53;47.60;101916.94;10415553;28;20539;-69
2023/06/15 20:58:48;;;;;;;8.68;4.28;;;;;;;18.42;47.53;101913.03;10381162;28;20083;-70
2023/06/15 21:03:48;;;;;;;15.93;3.85;;;;;;;18.35;48.76;101920.50;10413717;28;20041;-69
2023/06/15 21:08:50;;;;;;;8.73;5.53;;;;;;;18.25;48.75;101921.00;10414567;28;20103;-70
2023/06/15 21:13:50;;;;;;;5.30;4.60;;;;;;;18.16;49.80;101922.34;10413130;28;20034;-70
2023/06/15 21:18:50;;;;;;;9.80;5.05;;;;;;;18.07;49.43;101920.94;10397611;28;20042;-70
2023/06/15 21:23:51;;;;;;;6.10;5.50;;;;;;;17.97;49.70;101909.63;10414339;28;20083;-69
2023/06/15 21:28:51;;;;;;;4.63;4.10;;;;;;;17.92;50.75;101912.19;10413923;28;20034;-69
2023/06/15 21:33:52;;;;;;;6.07;4.80;;;;;;;17.83;50.63;101923.38;10413316;28;20365;-70
2023/06/15 21:38:52;;;;;;;9.38;4.80;;;;;;;17.74;50.93;101924.72;10414226;28;20037;-70
2023/06/15 21:43:53;;;;;;;14.55;5.70;;;;;;;17.66;51.02;101928.53;10413564;28;20049;-70
2023/06/15 21:48:55;;;;;;;10.20;6.22;;;;;;;17.62;51.97;101926.47;10413324;28;20041;-70
2023/06/15 21:53:55;;;;;;;6.15;5.38;;;;;;;17.54;51.73;101918.50;10412532;28;20025;-70
2023/06/15 21:58:56;;;;;;;15.00;7.50;;;;;;;17.47;52.12;101924.00;10414433;28;20068;-70
2023/06/15 22:03:56;;;;;;;8.75;6.45;;;;;;;17.37;52.79;101920.91;10413166;28;20128;-70
2023/06/15 22:08:57;;;;;;;6.90;5.63;;;;;;;17.30;52.82;101931.06;10412797;28;20117;-70
2023/06/15 22:13:58;;;;;;;8.27;7.47;;;;;;;17.29;54.18;101921.97;10413107;28;20057;-70
2023/06/15 22:18:58;;;;;;;16.17;7.10;;;;;;;17.26;54.30;101922.44;10394833;28;20092;-69
2023/06/15 22:24:01;;;;;;;14.10;7.60;;;;;;;17.22;54.54;101921.16;10412930;28;20064;-70
2023/06/15 22:29:01;;;;;;;9.98;7.75;;;;;;;17.20;54.78;101923.28;10410740;28;20365;-70
2023/06/15 22:34:03;;;;;;;16.63;8.07;;;;;;;17.14;55.38;101913.22;10411779;28;20060;-69
2023/06/15 22:39:03;;;;;;;8.75;7.85;;;;;;;17.12;55.70;101913.41;10412702;28;20056;-69
2023/06/15 22:44:04;;;;;;;9.82;7.15;;;;;;;17.09;56.36;101915.75;10395313;28;20030;-69
2023/06/15 22:49:08;;;;;;;15.73;9.05;;;;;;;17.03;56.80;101911.97;10412393;28;20060;-70
2023/06/15 22:54:08;;;;;;;21.73;9.57;;;;;;;17.03;57.46;101911.97;10411330;28;20040;-69
2023/06/15 22:59:08;;;;;;;35.58;9.55;;;;;;;16.98;57.64;101909.06;10412998;28;20045;-69
2023/06/15 23:04:10;;;;;;;24.52;9.70;;;;;;;16.92;58.26;101918.97;10412349;28;20088;-69